Rushville, Nebraska
Current Conditions -  °F | °C
As of 12:52 PM on Wednesday 17 Dec 2014 (Local Time) from KIEN Reporting Station
Broken Clouds Broken Clouds  
Wind Chill: -9°   Ceiling: 1200
Heat Index: -3°   Visibility: 10mi
Dew Point: -7°   Wind: 12mph
Humidity: 78%   Direction: 180°S
Pressure: 29.98"   Gusts: NA
Location:  42.72°N, 102.46°W
Report Text: KIEN 171952Z AUTO 18010KT 10SM BKN012 M03/M07 A2998 RMK AO2 SLP191 T10331067
Loading
Personal Weather Stations






























Interactive Weather Map New forecast layout! Learn more

10-Day Weather Forecast

Advertisements
Track Severe Weather on mobile